createdAt,value
2018-01-01T00:01:02.432Z,8.40
2018-01-01T00:03:37.377Z,9.03
2018-01-01T00:06:12.560Z,7.73
2018-01-01T00:08:47.636Z,5.90
2018-01-01T00:11:21.858Z,6.03
2018-01-01T00:13:57.295Z,5.47
2018-01-01T00:16:32.655Z,4.37
2018-01-01T00:19:06.714Z,4.33
2018-01-01T00:21:41.427Z,4.27
2018-01-01T00:24:15.559Z,4.57
2018-01-01T00:26:49.651Z,4.20
2018-01-01T00:29:23.385Z,4.50
2018-01-01T00:31:57.511Z,3.93
2018-01-01T00:34:31.584Z,4.33
2018-01-01T00:37:05.729Z,4.00
2018-01-01T00:39:40.407Z,3.57
2018-01-01T00:42:14.605Z,5.10
2018-01-01T00:44:49.232Z,4.00
2018-01-01T00:47:24.494Z,4.80
2018-01-01T00:49:58.727Z,3.83
2018-01-01T00:52:33.486Z,4.50
2018-01-01T00:55:07.472Z,4.03
2018-01-01T00:57:42.130Z,5.17
2018-01-01T01:00:16.107Z,4.33
2018-01-01T01:02:50.023Z,5.47
2018-01-01T01:05:24.066Z,3.83
2018-01-01T01:07:59.675Z,3.60
2018-01-01T01:10:34.250Z,3.60
2018-01-01T01:13:08.108Z,3.97
2018-01-01T01:15:42.093Z,5.30
2018-01-01T01:18:15.940Z,6.20
2018-01-01T01:20:50.495Z,4.23
2018-01-01T01:23:24.858Z,5.23
2018-01-01T01:25:59.408Z,5.40
2018-01-01T01:28:33.681Z,3.87
2018-01-01T01:31:08.292Z,4.00
2018-01-01T01:33:42.121Z,4.37
2018-01-01T01:36:16.746Z,4.67
2018-01-01T01:38:50.678Z,3.00
2018-01-01T01:41:25.080Z,3.70
2018-01-01T01:44:00.053Z,3.97
2018-01-01T01:46:33.917Z,3.30
2018-01-01T01:49:08.098Z,3.20
2018-01-01T01:51:42.958Z,3.27
2018-01-01T01:54:17.659Z,3.97
2018-01-01T01:56:51.994Z,4.40
2018-01-01T01:59:26.657Z,2.73
2018-01-01T02:02:00.778Z,3.60
2018-01-01T02:04:34.653Z,3.50
2018-01-01T02:07:08.768Z,4.07
2018-01-01T02:09:43.368Z,3.27
2018-01-01T02:12:17.322Z,4.17
2018-01-01T02:14:51.891Z,3.90
2018-01-01T02:17:26.014Z,3.80
2018-01-01T02:19:59.992Z,4.20
2018-01-01T02:22:34.897Z,3.90
2018-01-01T02:25:09.078Z,4.53
2018-01-01T02:27:42.967Z,3.50
2018-01-01T02:30:17.077Z,3.43
2018-01-01T02:32:51.818Z,3.00
2018-01-01T02:35:25.627Z,3.83
2018-01-01T02:38:00.312Z,3.33
2018-01-01T02:40:34.469Z,4.37
2018-01-01T02:43:08.985Z,5.27
2018-01-01T02:45:44.201Z,3.53
2018-01-01T02:48:18.627Z,3.70
2018-01-01T02:50:53.109Z,4.10
2018-01-01T02:53:27.184Z,5.40
2018-01-01T02:56:01.940Z,5.13
2018-01-01T02:58:35.847Z,3.90
2018-01-01T03:01:09.849Z,3.80
2018-01-01T03:03:43.800Z,2.93
2018-01-01T03:06:17.714Z,3.23
2018-01-01T03:08:51.606Z,4.80
2018-01-01T03:11:25.558Z,3.80
2018-01-01T03:13:59.497Z,4.00
2018-01-01T03:16:34.326Z,3.70
2018-01-01T03:19:08.284Z,5.17
2018-01-01T03:21:42.957Z,5.07
2018-01-01T03:24:17.123Z,3.37
2018-01-01T03:26:50.885Z,3.60
2018-01-01T03:29:24.939Z,3.47
2018-01-01T03:31:58.984Z,3.10
2018-01-01T03:34:32.729Z,3.20
2018-01-01T03:37:06.516Z,3.93
2018-01-01T03:39:40.356Z,3.63
2018-01-01T03:42:15.500Z,3.33
2018-01-01T03:44:49.209Z,3.70
2018-01-01T03:47:23.861Z,4.40
2018-01-01T03:49:58.742Z,3.37
2018-01-01T03:52:32.620Z,3.00
2018-01-01T03:55:06.312Z,4.07
2018-01-01T03:57:40.781Z,3.90
2018-01-01T04:00:14.756Z,4.83
2018-01-01T04:02:49.335Z,3.67
2018-01-01T04:05:24.630Z,3.27
2018-01-01T04:07:59.520Z,2.77
2018-01-01T04:10:33.792Z,2.90
2018-01-01T04:13:07.782Z,2.47
2018-01-01T04:15:41.909Z,3.23
2018-01-01T04:18:15.868Z,3.47
2018-01-01T04:20:50.286Z,2.63
2018-01-01T04:23:25.334Z,3.50
2018-01-01T04:26:02.489Z,3.10
2018-01-01T04:28:38.073Z,3.37
2018-01-01T04:31:12.004Z,3.50
2018-01-01T04:33:46.557Z,2.70
2018-01-01T04:36:21.366Z,2.77
2018-01-01T04:38:55.375Z,2.37
2018-01-01T04:41:29.361Z,3.27
2018-01-01T04:44:04.081Z,2.57
2018-01-01T04:46:38.052Z,3.50
2018-01-01T04:49:11.942Z,3.57
2018-01-01T04:51:46.089Z,3.70
2018-01-01T04:54:19.779Z,3.57
2018-01-01T04:56:53.628Z,2.70
2018-01-01T04:59:27.836Z,2.77
2018-01-01T05:02:02.240Z,2.33
2018-01-01T05:04:37.899Z,2.20
2018-01-01T05:07:12.451Z,3.03
2018-01-01T05:12:46.712Z,2.30
2018-01-01T05:15:21.165Z,3.17
2018-01-01T05:17:55.104Z,2.60
2018-01-01T05:20:29.690Z,2.23
2018-01-01T05:23:03.644Z,2.33
2018-01-01T05:25:37.618Z,2.77
2018-01-01T05:28:11.495Z,2.37
2018-01-01T05:30:46.323Z,2.57
2018-01-01T05:33:22.307Z,2.57
2018-01-01T05:35:56.829Z,2.43
2018-01-01T05:38:32.298Z,2.60
2018-01-01T05:41:07.553Z,3.00
2018-01-01T05:43:43.233Z,3.00
2018-01-01T05:46:17.576Z,3.30
2018-01-01T05:48:52.238Z,3.13
2018-01-01T05:51:26.010Z,2.27
2018-01-01T05:54:00.274Z,3.63
2018-01-01T05:56:34.244Z,3.43
2018-01-01T05:59:08.694Z,3.10
2018-01-01T06:01:42.991Z,2.60
2018-01-01T06:04:17.400Z,3.23
2018-01-01T06:06:51.359Z,2.40
2018-01-01T06:09:26.703Z,3.77
2018-01-01T06:12:00.754Z,3.13
2018-01-01T06:14:35.064Z,2.90
2018-01-01T06:17:09.658Z,2.80
2018-01-01T06:19:44.810Z,2.43
2018-01-01T06:22:18.883Z,3.30
2018-01-01T06:24:52.689Z,2.60
2018-01-01T06:27:26.643Z,2.53
2018-01-01T06:30:01.221Z,2.90
2018-01-01T06:32:35.508Z,2.80
2018-01-01T06:35:10.619Z,2.30
2018-01-01T06:37:45.327Z,2.50
2018-01-01T06:40:19.455Z,2.53
2018-01-01T06:42:53.195Z,2.83
2018-01-01T06:45:27.808Z,3.10
2018-01-01T06:48:01.771Z,2.63
2018-01-01T06:50:37.064Z,2.70
2018-01-01T06:53:12.749Z,2.90
2018-01-01T06:55:47.484Z,3.10
2018-01-01T06:58:22.095Z,2.57
2018-01-01T07:00:56.294Z,2.93
2018-01-01T07:03:30.270Z,3.07
2018-01-01T07:06:05.090Z,2.57
2018-01-01T07:08:39.906Z,2.50
2018-01-01T07:11:14.855Z,2.50
2018-01-01T07:13:49.275Z,2.40
2018-01-01T07:16:23.146Z,2.50
2018-01-01T07:18:58.587Z,2.50
2018-01-01T07:21:34.155Z,2.60
2018-01-01T07:24:08.023Z,3.00
2018-01-01T07:26:42.614Z,2.50
2018-01-01T07:29:17.709Z,2.73
2018-01-01T07:31:52.238Z,2.53
2018-01-01T07:34:27.252Z,2.40
2018-01-01T07:37:01.432Z,2.10
2018-01-01T07:39:35.367Z,2.47
2018-01-01T07:42:10.125Z,2.80
2018-01-01T07:44:44.248Z,2.37
2018-01-01T07:47:18.025Z,2.50
2018-01-01T07:49:52.638Z,1.93
2018-01-01T07:52:26.568Z,2.53
2018-01-01T07:55:00.406Z,2.57
2018-01-01T07:57:34.678Z,2.50
2018-01-01T08:00:08.964Z,2.97
2018-01-01T08:02:43.105Z,2.67
2018-01-01T08:05:17.637Z,3.50
2018-01-01T08:07:52.199Z,3.70
2018-01-01T08:10:26.381Z,2.40
2018-01-01T08:13:01.496Z,3.23
2018-01-01T08:15:35.350Z,3.80
2018-01-01T08:18:09.432Z,3.50
2018-01-01T08:20:43.993Z,5.87
2018-01-01T08:23:18.569Z,3.83
2018-01-01T08:25:53.334Z,4.47
2018-01-01T08:28:28.010Z,3.90
2018-01-01T08:31:03.152Z,3.10
2018-01-01T08:33:36.933Z,3.03
2018-01-01T08:36:11.686Z,3.67
2018-01-01T08:38:46.843Z,4.60
2018-01-01T08:41:22.426Z,3.40
2018-01-01T08:43:56.884Z,3.00
2018-01-01T08:46:31.128Z,3.17
2018-01-01T08:49:05.853Z,3.50
2018-01-01T08:51:39.783Z,2.90
2018-01-01T08:54:13.832Z,3.23
2018-01-01T08:56:47.648Z,3.13
2018-01-01T08:59:22.477Z,3.87
2018-01-01T09:01:57.619Z,3.00
2018-01-01T09:04:31.981Z,2.60
2018-01-01T09:07:06.023Z,3.00
2018-01-01T09:09:40.608Z,3.03
2018-01-01T09:12:15.497Z,2.73
2018-01-01T09:14:49.797Z,3.27
2018-01-01T09:17:24.914Z,3.20
2018-01-01T09:19:59.316Z,2.97
2018-01-01T09:22:32.955Z,3.20
2018-01-01T09:25:06.865Z,3.30
2018-01-01T09:27:40.991Z,3.07
2018-01-01T09:30:15.669Z,3.10
2018-01-01T09:32:49.525Z,2.97
2018-01-01T09:35:23.712Z,3.33
2018-01-01T09:37:57.683Z,2.97
2018-01-01T09:40:33.211Z,3.17
2018-01-01T09:43:07.858Z,2.97
2018-01-01T09:45:42.019Z,3.30
2018-01-01T09:48:16.600Z,3.33
2018-01-01T09:50:51.867Z,6.67
2018-01-01T09:53:25.851Z,13.70
2018-01-01T09:56:00.473Z,37.87
2018-01-01T09:58:35.684Z,16.03
2018-01-01T10:01:09.968Z,17.17
2018-01-01T10:03:43.789Z,12.23
2018-01-01T10:06:18.557Z,7.30
2018-01-01T10:08:53.858Z,10.00
2018-01-01T10:11:28.502Z,10.83
2018-01-01T10:14:02.660Z,18.73
2018-01-01T10:16:36.744Z,8.70
2018-01-01T10:19:11.656Z,15.50
2018-01-01T10:21:45.983Z,7.00
2018-01-01T10:24:20.802Z,6.70
2018-01-01T10:26:55.272Z,6.53
2018-01-01T10:29:29.476Z,6.13
2018-01-01T10:32:03.687Z,4.77
2018-01-01T10:34:38.662Z,4.30
2018-01-01T10:37:13.865Z,6.77
2018-01-01T10:39:48.220Z,4.27
2018-01-01T10:42:23.632Z,3.37
2018-01-01T10:44:58.052Z,3.80
2018-01-01T10:47:32.786Z,10.00
2018-01-01T10:50:07.332Z,4.80
2018-01-01T10:52:41.739Z,8.70
2018-01-01T10:55:15.623Z,3.97
2018-01-01T10:57:50.194Z,4.17
2018-01-01T11:00:24.370Z,4.10
2018-01-01T11:02:58.470Z,4.23
2018-01-01T11:05:33.980Z,5.63
2018-01-01T11:08:07.853Z,4.17
2018-01-01T11:10:42.130Z,4.70
2018-01-01T11:13:16.321Z,4.00
2018-01-01T11:15:50.755Z,3.97
2018-01-01T11:18:25.384Z,5.43
2018-01-01T11:21:00.887Z,3.77
2018-01-01T11:23:35.452Z,3.90
2018-01-01T11:26:10.149Z,3.97
2018-01-01T11:28:44.303Z,3.50
2018-01-01T11:31:18.353Z,3.93
2018-01-01T11:33:53.796Z,3.17
2018-01-01T11:36:29.067Z,2.97
2018-01-01T11:39:03.198Z,3.27
2018-01-01T11:41:37.993Z,5.43
2018-01-01T11:44:12.213Z,4.77
2018-01-01T11:46:46.117Z,4.13
2018-01-01T11:49:20.302Z,4.50
2018-01-01T11:51:55.257Z,3.20
2018-01-01T11:54:29.813Z,3.87
2018-01-01T11:57:04.099Z,3.10
2018-01-01T11:59:38.166Z,3.70
2018-01-01T12:02:12.937Z,4.97
2018-01-01T12:04:47.399Z,3.23
2018-01-01T12:07:21.305Z,3.30
2018-01-01T12:09:56.020Z,6.17
2018-01-01T12:12:30.720Z,25.80
2018-01-01T12:15:05.018Z,18.73
2018-01-01T12:17:39.598Z,8.00
2018-01-01T12:20:14.104Z,4.60
2018-01-01T12:22:48.607Z,27.73
2018-01-01T12:25:23.862Z,14.27
2018-01-01T12:27:58.092Z,5.30
2018-01-01T12:30:32.546Z,5.50
2018-01-01T12:33:07.090Z,4.40
2018-01-01T12:35:40.970Z,2.93
2018-01-01T12:38:15.384Z,3.40
2018-01-01T12:40:50.693Z,3.40
2018-01-01T12:43:25.147Z,3.63
2018-01-01T12:45:59.604Z,2.80
2018-01-01T12:48:33.409Z,2.53
2018-01-01T12:51:07.148Z,2.67
2018-01-01T12:53:41.722Z,3.67
2018-01-01T12:56:15.658Z,2.40
2018-01-01T12:58:50.771Z,2.37
2018-01-01T13:01:25.316Z,3.70
2018-01-01T13:04:00.445Z,2.73
2018-01-01T13:06:35.817Z,2.60
2018-01-01T13:09:09.831Z,2.70
2018-01-01T13:11:43.960Z,2.70
2018-01-01T13:14:17.823Z,3.00
2018-01-01T13:16:51.852Z,3.03
2018-01-01T13:19:25.740Z,2.47
2018-01-01T13:22:00.571Z,2.50
2018-01-01T13:24:34.778Z,2.83
2018-01-01T13:27:11.036Z,2.83
2018-01-01T13:29:45.959Z,3.23
2018-01-01T13:32:21.237Z,4.67
2018-01-01T13:34:56.434Z,4.40
2018-01-01T13:37:30.616Z,2.90
2018-01-01T13:40:06.148Z,3.97
2018-01-01T13:42:40.372Z,4.40
2018-01-01T13:45:14.576Z,3.83
2018-01-01T13:47:49.375Z,2.90
2018-01-01T13:50:24.806Z,3.27
2018-01-01T13:52:59.515Z,3.87
2018-01-01T13:55:34.005Z,6.03
2018-01-01T13:58:08.241Z,4.20
2018-01-01T14:00:42.385Z,4.53
2018-01-01T14:03:16.135Z,5.60
2018-01-01T14:05:49.955Z,3.50
2018-01-01T14:08:24.058Z,4.23
2018-01-01T14:10:57.783Z,3.17
2018-01-01T14:13:31.912Z,3.60
2018-01-01T14:16:07.366Z,3.97
2018-01-01T14:18:41.542Z,3.73
2018-01-01T14:21:16.588Z,4.47
2018-01-01T14:23:51.379Z,2.87
2018-01-01T14:26:25.613Z,3.97
2018-01-01T14:29:00.320Z,3.53
2018-01-01T14:31:34.430Z,4.23
2018-01-01T14:34:08.422Z,3.77
2018-01-01T14:36:42.406Z,3.83
2018-01-01T14:39:16.484Z,5.13
2018-01-01T14:41:50.285Z,4.17
2018-01-01T14:44:24.833Z,3.43
2018-01-01T14:46:59.557Z,3.70
2018-01-01T14:49:34.666Z,3.40
2018-01-01T14:52:10.608Z,3.07
2018-01-01T14:54:45.437Z,3.13
2018-01-01T14:57:19.957Z,3.97
2018-01-01T14:59:54.583Z,3.53
2018-01-01T15:02:28.762Z,4.67
2018-01-01T15:05:04.262Z,3.20
2018-01-01T15:07:38.207Z,3.33
2018-01-01T15:10:12.791Z,3.60
2018-01-01T15:12:46.825Z,2.87
2018-01-01T15:15:21.179Z,3.20
2018-01-01T15:17:56.648Z,3.13
2018-01-01T15:20:30.472Z,3.20
2018-01-01T15:23:05.288Z,3.13
2018-01-01T15:25:40.601Z,4.83
2018-01-01T15:28:16.004Z,3.07
2018-01-01T15:30:51.923Z,3.10
2018-01-01T15:33:27.936Z,3.40
2018-01-01T15:36:01.923Z,2.87
2018-01-01T15:38:35.858Z,3.20
2018-01-01T15:41:10.057Z,2.93
2018-01-01T15:43:44.177Z,2.77
2018-01-01T15:46:18.248Z,3.57
2018-01-01T15:48:52.085Z,2.57
2018-01-01T15:51:26.534Z,3.57
2018-01-01T15:54:01.036Z,2.90
2018-01-01T15:56:35.335Z,2.87
2018-01-01T15:59:10.291Z,3.43
2018-01-01T16:01:45.071Z,3.00
2018-01-01T16:04:19.993Z,2.70
2018-01-01T16:06:54.707Z,2.90
2018-01-01T16:09:28.799Z,3.57
2018-01-01T16:12:02.705Z,2.70
2018-01-01T16:14:36.526Z,2.97
2018-01-01T16:17:11.052Z,3.43
2018-01-01T16:19:45.166Z,4.00
2018-01-01T16:22:19.133Z,3.33
2018-01-01T16:24:53.556Z,2.73
2018-01-01T16:27:27.739Z,3.43
2018-01-01T16:30:01.551Z,2.97
2018-01-01T16:32:35.616Z,2.13
2018-01-01T16:35:09.638Z,2.40
2018-01-01T16:37:44.352Z,2.40
2018-01-01T16:40:18.587Z,2.10
2018-01-01T16:42:53.176Z,2.63
2018-01-01T16:45:27.012Z,2.43
2018-01-01T16:48:01.172Z,2.40
2018-01-01T16:50:35.012Z,2.53
2018-01-01T16:53:08.863Z,2.37
2018-01-01T16:55:43.331Z,2.30
2018-01-01T16:58:17.498Z,2.63
2018-01-01T17:00:51.331Z,2.77
2018-01-01T17:03:26.111Z,2.83
2018-01-01T17:06:00.278Z,2.60
2018-01-01T17:08:34.793Z,2.40
2018-01-01T17:11:09.259Z,2.83
2018-01-01T17:13:44.826Z,3.00
2018-01-01T17:16:19.284Z,3.33
2018-01-01T17:18:53.478Z,2.63
2018-01-01T17:21:28.948Z,2.77
2018-01-01T17:24:02.749Z,2.80
2018-01-01T17:26:37.606Z,2.43
2018-01-01T17:29:12.783Z,2.67
2018-01-01T17:31:47.172Z,2.57
2018-01-01T17:34:22.012Z,3.30
2018-01-01T17:36:57.150Z,2.50
2018-01-01T17:39:31.928Z,2.43
2018-01-01T17:42:06.019Z,2.50
2018-01-01T17:44:41.088Z,2.83
2018-01-01T17:47:16.059Z,2.67
2018-01-01T17:49:51.452Z,2.83
2018-01-01T17:52:25.664Z,2.20
2018-01-01T17:54:59.530Z,2.73
2018-01-01T17:57:33.452Z,2.30
2018-01-01T18:00:08.877Z,2.43
2018-01-01T18:02:43.219Z,3.20
2018-01-01T18:05:17.249Z,2.20
2018-01-01T18:07:51.378Z,2.07
2018-01-01T18:10:25.940Z,2.23
2018-01-01T18:13:00.511Z,2.57
2018-01-01T18:15:34.791Z,2.30
2018-01-01T18:18:08.736Z,2.30
2018-01-01T18:20:43.183Z,2.47
2018-01-01T18:23:17.590Z,2.00
2018-01-01T18:25:52.993Z,2.00
2018-01-01T18:28:27.993Z,1.93
2018-01-01T18:31:02.249Z,2.73
2018-01-01T18:33:36.580Z,2.53
2018-01-01T18:36:10.782Z,2.50
2018-01-01T18:38:45.523Z,7.27
2018-01-01T18:41:19.826Z,3.07
2018-01-01T18:43:53.586Z,2.77
2018-01-01T18:46:27.533Z,1.90
2018-01-01T18:49:01.414Z,2.47
2018-01-01T18:51:36.108Z,2.53
2018-01-01T18:54:10.183Z,2.60
2018-01-01T18:56:44.956Z,2.20
2018-01-01T18:59:19.003Z,2.70
2018-01-01T19:01:53.116Z,2.80
2018-01-01T19:04:27.107Z,2.57
2018-01-01T19:07:01.642Z,2.83
2018-01-01T19:09:35.842Z,2.97
2018-01-01T19:12:10.562Z,2.20
2018-01-01T19:14:45.773Z,2.20
2018-01-01T19:17:20.058Z,2.60
2018-01-01T19:19:54.229Z,3.23
2018-01-01T19:22:28.404Z,3.80
2018-01-01T19:25:02.581Z,2.27
2018-01-01T19:27:36.833Z,2.47
2018-01-01T19:30:10.992Z,2.30
2018-01-01T19:32:46.032Z,2.17
2018-01-01T19:35:20.148Z,2.27
2018-01-01T19:37:54.104Z,1.90
2018-01-01T19:40:27.847Z,2.10
2018-01-01T19:43:01.712Z,2.40
2018-01-01T19:45:36.438Z,2.00
2018-01-01T19:48:10.633Z,1.80
2018-01-01T19:50:44.497Z,2.30
2018-01-01T19:53:18.448Z,2.23
2018-01-01T19:55:52.514Z,2.00
2018-01-01T19:58:26.312Z,2.10
2018-01-01T20:01:00.066Z,2.07
2018-01-01T20:03:34.060Z,2.10
2018-01-01T20:06:07.901Z,2.23
2018-01-01T20:08:41.897Z,2.10
2018-01-01T20:11:16.845Z,1.83
2018-01-01T20:13:51.520Z,2.13
2018-01-01T20:16:25.929Z,2.00
2018-01-01T20:19:00.522Z,2.30
2018-01-01T20:21:34.928Z,3.10
2018-01-01T20:24:09.329Z,1.80
2018-01-01T20:26:43.401Z,2.20
2018-01-01T20:29:17.310Z,2.10
2018-01-01T20:31:52.219Z,1.83
2018-01-01T20:34:26.339Z,2.33
2018-01-01T20:37:00.359Z,2.03
2018-01-01T20:39:34.600Z,1.70
2018-01-01T20:42:08.586Z,1.73
2018-01-01T20:44:43.517Z,1.77
2018-01-01T20:47:17.695Z,1.70
2018-01-01T20:49:51.887Z,2.20
2018-01-01T20:52:26.228Z,1.90
2018-01-01T20:55:00.464Z,2.10
2018-01-01T20:57:34.612Z,1.73
2018-01-01T21:00:08.785Z,1.60
2018-01-01T21:02:43.801Z,1.90
2018-01-01T21:05:19.070Z,1.60
2018-01-01T21:07:53.377Z,2.10
2018-01-01T21:10:27.672Z,1.70
2018-01-01T21:13:01.603Z,2.27
2018-01-01T21:15:36.352Z,1.73
2018-01-01T21:18:11.366Z,1.80
2018-01-01T21:20:45.764Z,2.23
2018-01-01T21:23:20.133Z,1.60
2018-01-01T21:25:54.175Z,2.30
2018-01-01T21:28:28.282Z,1.97
2018-01-01T21:31:03.283Z,1.90
2018-01-01T21:33:37.761Z,2.20
2018-01-01T21:36:13.104Z,2.37
2018-01-01T21:38:47.762Z,1.87
2018-01-01T21:41:22.267Z,2.30
2018-01-01T21:43:56.512Z,2.47
2018-01-01T21:46:30.821Z,2.03
2018-01-01T21:49:05.243Z,1.93
2018-01-01T21:51:39.692Z,3.23
2018-01-01T21:54:14.268Z,2.87
2018-01-01T21:56:48.330Z,4.20
2018-01-01T21:59:22.875Z,4.50
2018-01-01T22:01:58.143Z,4.63
2018-01-01T22:04:33.474Z,2.60
2018-01-01T22:07:07.589Z,1.97
2018-01-01T22:09:41.356Z,2.10
2018-01-01T22:12:15.133Z,2.20
2018-01-01T22:14:49.216Z,1.90
2018-01-01T22:17:23.959Z,1.90
2018-01-01T22:19:58.000Z,2.47
2018-01-01T22:22:32.907Z,2.07
2018-01-01T22:25:07.787Z,1.70
2018-01-01T22:27:42.142Z,1.80
2018-01-01T22:30:16.847Z,1.80
2018-01-01T22:32:52.027Z,1.63
2018-01-01T22:35:26.285Z,1.53
2018-01-01T22:38:00.489Z,1.70
2018-01-01T22:40:34.927Z,1.80
2018-01-01T22:43:09.408Z,1.60
2018-01-01T22:45:44.906Z,2.00
2018-01-01T22:48:19.723Z,1.90
2018-01-01T22:50:54.462Z,1.90
2018-01-01T22:53:29.039Z,2.57
2018-01-01T22:56:02.879Z,2.70
2018-01-01T22:58:37.090Z,2.67
2018-01-01T23:01:13.043Z,1.80
2018-01-01T23:03:46.830Z,16.50
2018-01-01T23:06:22.247Z,3.17
2018-01-01T23:08:56.813Z,2.70
2018-01-01T23:11:32.659Z,3.30
2018-01-01T23:14:07.253Z,2.47
2018-01-01T23:16:41.237Z,4.10
2018-01-01T23:19:15.145Z,4.50
2018-01-01T23:21:48.955Z,4.00
2018-01-01T23:24:23.566Z,2.80
2018-01-01T23:26:58.576Z,2.47
2018-01-01T23:29:33.994Z,1.83
2018-01-01T23:32:08.636Z,2.00
2018-01-01T23:34:43.808Z,1.83
2018-01-01T23:37:18.127Z,2.00
2018-01-01T23:39:52.286Z,3.10
2018-01-01T23:42:27.039Z,2.83
2018-01-01T23:45:02.218Z,3.00
2018-01-01T23:47:36.954Z,3.73
2018-01-01T23:50:11.181Z,2.80
2018-01-01T23:52:45.688Z,2.67
2018-01-01T23:55:19.634Z,3.10
2018-01-01T23:57:53.601Z,3.67
